sensor_id;sensor_type;location;lat;lon;timestamp;P1;durP1;ratioP1;P2;durP2;ratioP2
70320;SDS011;61127;55.826;37.046;2023-09-19T00:00:17;26.67;;;9.53;;
70320;SDS011;61127;55.826;37.046;2023-09-19T00:02:45;31.30;;;9.57;;
70320;SDS011;61127;55.826;37.046;2023-09-19T00:05:17;24.38;;;8.90;;
70320;SDS011;61127;55.826;37.046;2023-09-19T00:07:43;32.20;;;9.70;;
70320;SDS011;61127;55.826;37.046;2023-09-19T00:10:10;26.15;;;10.20;;
70320;SDS011;61127;55.826;37.046;2023-09-19T00:12:42;23.20;;;10.23;;
70320;SDS011;61127;55.826;37.046;2023-09-19T00:15:09;22.38;;;9.88;;
70320;SDS011;61127;55.826;37.046;2023-09-19T00:17:36;25.33;;;9.30;;
70320;SDS011;61127;55.826;37.046;2023-09-19T00:20:03;17.85;;;8.98;;
70320;SDS011;61127;55.826;37.046;2023-09-19T00:22:41;19.00;;;8.65;;
70320;SDS011;61127;55.826;37.046;2023-09-19T00:25:10;18.90;;;8.30;;
70320;SDS011;61127;55.826;37.046;2023-09-19T00:27:38;19.25;;;8.27;;
70320;SDS011;61127;55.826;37.046;2023-09-19T00:30:07;17.85;;;8.80;;
70320;SDS011;61127;55.826;37.046;2023-09-19T00:32:41;15.02;;;7.57;;
70320;SDS011;61127;55.826;37.046;2023-09-19T00:35:08;13.88;;;7.68;;
70320;SDS011;61127;55.826;37.046;2023-09-19T00:37:36;12.70;;;7.17;;
70320;SDS011;61127;55.826;37.046;2023-09-19T00:40:06;15.57;;;7.93;;
70320;SDS011;61127;55.826;37.046;2023-09-19T00:42:38;13.90;;;7.45;;
70320;SDS011;61127;55.826;37.046;2023-09-19T00:45:07;16.13;;;7.15;;
70320;SDS011;61127;55.826;37.046;2023-09-19T00:47:36;14.38;;;7.55;;
70320;SDS011;61127;55.826;37.046;2023-09-19T00:50:04;14.43;;;7.57;;
70320;SDS011;61127;55.826;37.046;2023-09-19T00:52:39;13.43;;;7.07;;
70320;SDS011;61127;55.826;37.046;2023-09-19T00:55:07;11.82;;;6.80;;
70320;SDS011;61127;55.826;37.046;2023-09-19T00:57:35;13.25;;;7.10;;
70320;SDS011;61127;55.826;37.046;2023-09-19T01:00:04;13.18;;;7.75;;
70320;SDS011;61127;55.826;37.046;2023-09-19T01:02:34;16.57;;;8.77;;
70320;SDS011;61127;55.826;37.046;2023-09-19T01:05:01;14.43;;;8.95;;
70320;SDS011;61127;55.826;37.046;2023-09-19T01:07:31;14.15;;;7.65;;
70320;SDS011;61127;55.826;37.046;2023-09-19T01:10:03;13.43;;;7.82;;
70320;SDS011;61127;55.826;37.046;2023-09-19T01:29:46;13.90;;;7.97;;
70320;SDS011;61127;55.826;37.046;2023-09-19T01:32:16;14.10;;;7.55;;
70320;SDS011;61127;55.826;37.046;2023-09-19T01:34:56;14.23;;;7.35;;
70320;SDS011;61127;55.826;37.046;2023-09-19T01:37:30;12.82;;;7.72;;
70320;SDS011;61127;55.826;37.046;2023-09-19T01:40:01;12.95;;;7.72;;
70320;SDS011;61127;55.826;37.046;2023-09-19T01:42:37;15.17;;;8.07;;
70320;SDS011;61127;55.826;37.046;2023-09-19T01:48:35;12.77;;;7.75;;
70320;SDS011;61127;55.826;37.046;2023-09-19T01:51:07;16.70;;;7.72;;
70320;SDS011;61127;55.826;37.046;2023-09-19T01:53:53;13.80;;;8.70;;
70320;SDS011;61127;55.826;37.046;2023-09-19T01:56:30;12.97;;;8.67;;
70320;SDS011;61127;55.826;37.046;2023-09-19T01:59:04;12.48;;;7.82;;
70320;SDS011;61127;55.826;37.046;2023-09-19T02:01:35;18.75;;;8.82;;
70320;SDS011;61127;55.826;37.046;2023-09-19T02:04:03;14.88;;;8.20;;
70320;SDS011;61127;55.826;37.046;2023-09-19T02:06:31;12.95;;;8.25;;
70320;SDS011;61127;55.826;37.046;2023-09-19T02:08:59;13.30;;;7.90;;
70320;SDS011;61127;55.826;37.046;2023-09-19T02:11:25;17.40;;;8.75;;
70320;SDS011;61127;55.826;37.046;2023-09-19T02:13:51;15.48;;;8.95;;
70320;SDS011;61127;55.826;37.046;2023-09-19T02:16:20;14.40;;;8.32;;
70320;SDS011;61127;55.826;37.046;2023-09-19T02:18:49;12.45;;;7.50;;
70320;SDS011;61127;55.826;37.046;2023-09-19T02:21:17;15.03;;;8.93;;
70320;SDS011;61127;55.826;37.046;2023-09-19T02:23:44;17.10;;;9.20;;
70320;SDS011;61127;55.826;37.046;2023-09-19T02:26:13;13.38;;;8.57;;
70320;SDS011;61127;55.826;37.046;2023-09-19T02:28:41;16.38;;;8.57;;
70320;SDS011;61127;55.826;37.046;2023-09-19T02:31:08;17.40;;;8.48;;
70320;SDS011;61127;55.826;37.046;2023-09-19T02:33:35;17.87;;;8.20;;
70320;SDS011;61127;55.826;37.046;2023-09-19T02:36:02;12.93;;;8.02;;
70320;SDS011;61127;55.826;37.046;2023-09-19T02:38:29;14.55;;;8.50;;
70320;SDS011;61127;55.826;37.046;2023-09-19T02:40:55;14.68;;;7.88;;
70320;SDS011;61127;55.826;37.046;2023-09-19T02:43:22;17.02;;;8.77;;
70320;SDS011;61127;55.826;37.046;2023-09-19T02:45:49;16.70;;;8.60;;
70320;SDS011;61127;55.826;37.046;2023-09-19T02:48:16;13.45;;;8.40;;
70320;SDS011;61127;55.826;37.046;2023-09-19T02:50:43;15.75;;;8.07;;
70320;SDS011;61127;55.826;37.046;2023-09-19T02:53:10;12.55;;;8.20;;
70320;SDS011;61127;55.826;37.046;2023-09-19T02:55:38;13.40;;;7.32;;
70320;SDS011;61127;55.826;37.046;2023-09-19T02:58:06;13.20;;;7.50;;
70320;SDS011;61127;55.826;37.046;2023-09-19T03:00:40;13.43;;;8.23;;
70320;SDS011;61127;55.826;37.046;2023-09-19T03:03:13;16.83;;;8.80;;
70320;SDS011;61127;55.826;37.046;2023-09-19T03:05:41;16.63;;;9.30;;
70320;SDS011;61127;55.826;37.046;2023-09-19T03:08:13;16.30;;;9.45;;
70320;SDS011;61127;55.826;37.046;2023-09-19T03:10:45;18.27;;;9.13;;
70320;SDS011;61127;55.826;37.046;2023-09-19T03:13:14;16.42;;;9.23;;
70320;SDS011;61127;55.826;37.046;2023-09-19T03:15:41;17.42;;;9.63;;
70320;SDS011;61127;55.826;37.046;2023-09-19T03:18:11;16.85;;;8.38;;
70320;SDS011;61127;55.826;37.046;2023-09-19T03:20:39;15.07;;;9.05;;
70320;SDS011;61127;55.826;37.046;2023-09-19T03:23:05;15.07;;;8.27;;
70320;SDS011;61127;55.826;37.046;2023-09-19T03:25:33;14.20;;;8.27;;
70320;SDS011;61127;55.826;37.046;2023-09-19T03:28:02;18.25;;;9.43;;
70320;SDS011;61127;55.826;37.046;2023-09-19T03:30:31;19.52;;;10.27;;
70320;SDS011;61127;55.826;37.046;2023-09-19T03:33:00;18.33;;;9.60;;
70320;SDS011;61127;55.826;37.046;2023-09-19T03:35:26;17.83;;;9.77;;
70320;SDS011;61127;55.826;37.046;2023-09-19T03:37:52;16.75;;;9.52;;
70320;SDS011;61127;55.826;37.046;2023-09-19T03:40:18;17.65;;;9.70;;
70320;SDS011;61127;55.826;37.046;2023-09-19T03:42:47;16.83;;;9.50;;
70320;SDS011;61127;55.826;37.046;2023-09-19T03:45:13;19.65;;;10.10;;
70320;SDS011;61127;55.826;37.046;2023-09-19T03:47:46;18.53;;;9.80;;
70320;SDS011;61127;55.826;37.046;2023-09-19T03:50:18;18.83;;;10.38;;
70320;SDS011;61127;55.826;37.046;2023-09-19T03:52:44;21.20;;;10.20;;
70320;SDS011;61127;55.826;37.046;2023-09-19T03:55:10;17.83;;;10.90;;
70320;SDS011;61127;55.826;37.046;2023-09-19T03:57:38;19.17;;;10.80;;
70320;SDS011;61127;55.826;37.046;2023-09-19T04:00:05;20.27;;;10.43;;
70320;SDS011;61127;55.826;37.046;2023-09-19T04:02:40;21.17;;;10.85;;
70320;SDS011;61127;55.826;37.046;2023-09-19T04:05:07;20.88;;;10.98;;
70320;SDS011;61127;55.826;37.046;2023-09-19T04:07:34;19.98;;;10.38;;
70320;SDS011;61127;55.826;37.046;2023-09-19T04:10:00;22.33;;;11.00;;
70320;SDS011;61127;55.826;37.046;2023-09-19T04:12:29;19.83;;;11.15;;
70320;SDS011;61127;55.826;37.046;2023-09-19T04:14:55;20.90;;;11.90;;
70320;SDS011;61127;55.826;37.046;2023-09-19T04:17:21;28.20;;;13.00;;
70320;SDS011;61127;55.826;37.046;2023-09-19T04:19:48;23.83;;;12.57;;
70320;SDS011;61127;55.826;37.046;2023-09-19T04:22:14;23.50;;;11.70;;
70320;SDS011;61127;55.826;37.046;2023-09-19T04:24:41;22.70;;;12.75;;
70320;SDS011;61127;55.826;37.046;2023-09-19T04:27:07;22.13;;;12.40;;
70320;SDS011;61127;55.826;37.046;2023-09-19T04:29:35;20.25;;;12.18;;
70320;SDS011;61127;55.826;37.046;2023-09-19T04:32:01;25.23;;;12.60;;
70320;SDS011;61127;55.826;37.046;2023-09-19T04:34:31;21.08;;;12.45;;
70320;SDS011;61127;55.826;37.046;2023-09-19T04:36:57;23.35;;;13.38;;
70320;SDS011;61127;55.826;37.046;2023-09-19T04:39:26;19.30;;;11.60;;
70320;SDS011;61127;55.826;37.046;2023-09-19T04:41:52;24.00;;;12.85;;
70320;SDS011;61127;55.826;37.046;2023-09-19T04:44:18;21.50;;;12.25;;
70320;SDS011;61127;55.826;37.046;2023-09-19T04:46:44;22.33;;;12.35;;
70320;SDS011;61127;55.826;37.046;2023-09-19T04:49:13;20.42;;;12.73;;
70320;SDS011;61127;55.826;37.046;2023-09-19T04:51:39;21.92;;;13.82;;
70320;SDS011;61127;55.826;37.046;2023-09-19T04:54:05;26.48;;;15.18;;
70320;SDS011;61127;55.826;37.046;2023-09-19T04:56:32;24.33;;;14.20;;
70320;SDS011;61127;55.826;37.046;2023-09-19T04:58:59;27.05;;;15.32;;
70320;SDS011;61127;55.826;37.046;2023-09-19T05:01:25;24.83;;;14.18;;
70320;SDS011;61127;55.826;37.046;2023-09-19T05:03:52;27.00;;;15.93;;
70320;SDS011;61127;55.826;37.046;2023-09-19T05:06:19;27.92;;;15.35;;
70320;SDS011;61127;55.826;37.046;2023-09-19T05:08:48;29.00;;;16.33;;
70320;SDS011;61127;55.826;37.046;2023-09-19T05:11:17;27.17;;;16.73;;
70320;SDS011;61127;55.826;37.046;2023-09-19T05:13:49;35.22;;;16.35;;
70320;SDS011;61127;55.826;37.046;2023-09-19T05:16:21;27.90;;;15.48;;
70320;SDS011;61127;55.826;37.046;2023-09-19T05:18:47;27.85;;;16.40;;
70320;SDS011;61127;55.826;37.046;2023-09-19T05:21:15;29.53;;;17.33;;
70320;SDS011;61127;55.826;37.046;2023-09-19T05:23:41;29.15;;;15.98;;
70320;SDS011;61127;55.826;37.046;2023-09-19T05:26:07;29.50;;;16.80;;
70320;SDS011;61127;55.826;37.046;2023-09-19T05:28:33;30.50;;;15.65;;
70320;SDS011;61127;55.826;37.046;2023-09-19T05:31:00;31.73;;;17.77;;
70320;SDS011;61127;55.826;37.046;2023-09-19T05:33:29;32.07;;;16.17;;
70320;SDS011;61127;55.826;37.046;2023-09-19T05:35:57;29.42;;;16.50;;
70320;SDS011;61127;55.826;37.046;2023-09-19T05:38:23;27.73;;;16.20;;
70320;SDS011;61127;55.826;37.046;2023-09-19T05:40:51;29.00;;;15.63;;
70320;SDS011;61127;55.826;37.046;2023-09-19T05:43:17;28.77;;;15.75;;
70320;SDS011;61127;55.826;37.046;2023-09-19T05:45:47;28.30;;;16.17;;
70320;SDS011;61127;55.826;37.046;2023-09-19T05:48:14;30.98;;;15.93;;
70320;SDS011;61127;55.826;37.046;2023-09-19T05:50:42;28.48;;;16.02;;
70320;SDS011;61127;55.826;37.046;2023-09-19T05:53:08;29.58;;;16.83;;
70320;SDS011;61127;55.826;37.046;2023-09-19T05:55:38;28.27;;;16.60;;
70320;SDS011;61127;55.826;37.046;2023-09-19T05:58:04;27.47;;;15.53;;
70320;SDS011;61127;55.826;37.046;2023-09-19T06:00:30;28.13;;;14.90;;
70320;SDS011;61127;55.826;37.046;2023-09-19T06:02:58;28.83;;;16.20;;
70320;SDS011;61127;55.826;37.046;2023-09-19T06:05:25;25.10;;;14.55;;
70320;SDS011;61127;55.826;37.046;2023-09-19T06:07:52;31.20;;;15.60;;
70320;SDS011;61127;55.826;37.046;2023-09-19T06:10:19;26.33;;;15.30;;
70320;SDS011;61127;55.826;37.046;2023-09-19T06:12:48;23.67;;;14.88;;
70320;SDS011;61127;55.826;37.046;2023-09-19T06:15:15;29.63;;;15.73;;
70320;SDS011;61127;55.826;37.046;2023-09-19T06:17:48;30.65;;;16.60;;
70320;SDS011;61127;55.826;37.046;2023-09-19T06:20:20;26.60;;;15.48;;
70320;SDS011;61127;55.826;37.046;2023-09-19T06:22:48;28.03;;;15.60;;
70320;SDS011;61127;55.826;37.046;2023-09-19T06:25:15;25.38;;;15.95;;
70320;SDS011;61127;55.826;37.046;2023-09-19T06:27:46;28.70;;;16.60;;
70320;SDS011;61127;55.826;37.046;2023-09-19T06:30:16;25.52;;;15.40;;
70320;SDS011;61127;55.826;37.046;2023-09-19T06:32:43;28.25;;;15.32;;
70320;SDS011;61127;55.826;37.046;2023-09-19T06:35:10;27.07;;;14.67;;
70320;SDS011;61127;55.826;37.046;2023-09-19T06:37:37;28.83;;;15.43;;
70320;SDS011;61127;55.826;37.046;2023-09-19T06:42:40;27.33;;;14.82;;
70320;SDS011;61127;55.826;37.046;2023-09-19T06:45:13;30.65;;;14.57;;
70320;SDS011;61127;55.826;37.046;2023-09-19T06:47:45;27.90;;;13.73;;
70320;SDS011;61127;55.826;37.046;2023-09-19T06:50:11;22.83;;;13.88;;
70320;SDS011;61127;55.826;37.046;2023-09-19T06:52:41;23.02;;;13.45;;
70320;SDS011;61127;55.826;37.046;2023-09-19T06:55:07;19.23;;;11.88;;
70320;SDS011;61127;55.826;37.046;2023-09-19T06:57:35;22.27;;;12.77;;
70320;SDS011;61127;55.826;37.046;2023-09-19T07:00:01;20.73;;;12.40;;
70320;SDS011;61127;55.826;37.046;2023-09-19T07:02:29;22.63;;;12.00;;
70320;SDS011;61127;55.826;37.046;2023-09-19T07:04:55;21.58;;;12.02;;
70320;SDS011;61127;55.826;37.046;2023-09-19T07:07:21;22.10;;;12.35;;
70320;SDS011;61127;55.826;37.046;2023-09-19T07:09:47;18.77;;;11.60;;
70320;SDS011;61127;55.826;37.046;2023-09-19T07:12:14;18.85;;;11.45;;
70320;SDS011;61127;55.826;37.046;2023-09-19T07:14:40;25.60;;;12.88;;
70320;SDS011;61127;55.826;37.046;2023-09-19T07:17:06;21.35;;;11.63;;
70320;SDS011;61127;55.826;37.046;2023-09-19T07:19:33;21.23;;;12.17;;
70320;SDS011;61127;55.826;37.046;2023-09-19T07:21:59;21.92;;;11.57;;
70320;SDS011;61127;55.826;37.046;2023-09-19T07:24:28;18.40;;;12.70;;
70320;SDS011;61127;55.826;37.046;2023-09-19T07:26:54;18.75;;;11.43;;
70320;SDS011;61127;55.826;37.046;2023-09-19T07:29:20;19.60;;;11.30;;
70320;SDS011;61127;55.826;37.046;2023-09-19T07:31:46;17.70;;;11.30;;
70320;SDS011;61127;55.826;37.046;2023-09-19T07:34:13;16.27;;;10.35;;
70320;SDS011;61127;55.826;37.046;2023-09-19T07:36:39;17.35;;;10.48;;
70320;SDS011;61127;55.826;37.046;2023-09-19T07:39:07;19.00;;;11.32;;
70320;SDS011;61127;55.826;37.046;2023-09-19T07:41:33;22.23;;;11.90;;
70320;SDS011;61127;55.826;37.046;2023-09-19T07:43:59;19.55;;;11.30;;
70320;SDS011;61127;55.826;37.046;2023-09-19T07:46:26;20.08;;;12.32;;
70320;SDS011;61127;55.826;37.046;2023-09-19T07:48:52;18.88;;;12.05;;
70320;SDS011;61127;55.826;37.046;2023-09-19T07:51:21;19.42;;;11.85;;
70320;SDS011;61127;55.826;37.046;2023-09-19T07:53:47;20.57;;;11.67;;
70320;SDS011;61127;55.826;37.046;2023-09-19T07:56:13;20.90;;;10.93;;
70320;SDS011;61127;55.826;37.046;2023-09-19T07:58:40;19.33;;;11.45;;
70320;SDS011;61127;55.826;37.046;2023-09-19T08:01:09;20.60;;;11.90;;
70320;SDS011;61127;55.826;37.046;2023-09-19T08:03:39;19.23;;;10.70;;
70320;SDS011;61127;55.826;37.046;2023-09-19T08:06:09;22.05;;;11.43;;
70320;SDS011;61127;55.826;37.046;2023-09-19T08:08:36;20.83;;;12.55;;
70320;SDS011;61127;55.826;37.046;2023-09-19T08:11:03;19.38;;;11.13;;
70320;SDS011;61127;55.826;37.046;2023-09-19T08:13:38;18.95;;;10.10;;
70320;SDS011;61127;55.826;37.046;2023-09-19T08:16:15;19.83;;;10.70;;
70320;SDS011;61127;55.826;37.046;2023-09-19T08:18:41;19.92;;;12.55;;
70320;SDS011;61127;55.826;37.046;2023-09-19T08:21:11;23.48;;;12.70;;
70320;SDS011;61127;55.826;37.046;2023-09-19T08:23:37;20.65;;;11.50;;
70320;SDS011;61127;55.826;37.046;2023-09-19T08:26:07;25.05;;;12.15;;
70320;SDS011;61127;55.826;37.046;2023-09-19T08:28:35;19.87;;;11.90;;
70320;SDS011;61127;55.826;37.046;2023-09-19T08:31:05;17.98;;;11.30;;
70320;SDS011;61127;55.826;37.046;2023-09-19T08:33:35;17.35;;;10.00;;
70320;SDS011;61127;55.826;37.046;2023-09-19T08:36:02;28.45;;;12.57;;
70320;SDS011;61127;55.826;37.046;2023-09-19T08:38:31;20.50;;;13.00;;
70320;SDS011;61127;55.826;37.046;2023-09-19T08:41:00;19.93;;;10.97;;
70320;SDS011;61127;55.826;37.046;2023-09-19T08:43:31;18.25;;;11.90;;
70320;SDS011;61127;55.826;37.046;2023-09-19T08:46:06;19.77;;;12.60;;
70320;SDS011;61127;55.826;37.046;2023-09-19T08:48:33;25.52;;;12.98;;
70320;SDS011;61127;55.826;37.046;2023-09-19T08:51:03;17.00;;;11.82;;
70320;SDS011;61127;55.826;37.046;2023-09-19T08:56:17;20.73;;;12.60;;
70320;SDS011;61127;55.826;37.046;2023-09-19T08:58:45;23.15;;;12.30;;
70320;SDS011;61127;55.826;37.046;2023-09-19T09:01:15;22.85;;;12.15;;
70320;SDS011;61127;55.826;37.046;2023-09-19T09:03:42;22.58;;;12.95;;
70320;SDS011;61127;55.826;37.046;2023-09-19T09:06:13;22.77;;;13.77;;
70320;SDS011;61127;55.826;37.046;2023-09-19T09:08:42;25.88;;;13.90;;
70320;SDS011;61127;55.826;37.046;2023-09-19T09:11:13;24.17;;;13.38;;
70320;SDS011;61127;55.826;37.046;2023-09-19T09:13:41;21.25;;;13.75;;
70320;SDS011;61127;55.826;37.046;2023-09-19T09:16:07;19.70;;;12.25;;
70320;SDS011;61127;55.826;37.046;2023-09-19T09:18:35;21.53;;;12.07;;
70320;SDS011;61127;55.826;37.046;2023-09-19T09:21:01;20.20;;;12.60;;
70320;SDS011;61127;55.826;37.046;2023-09-19T09:23:29;20.85;;;12.52;;
70320;SDS011;61127;55.826;37.046;2023-09-19T09:25:57;24.13;;;12.90;;
70320;SDS011;61127;55.826;37.046;2023-09-19T09:28:32;21.13;;;13.60;;
70320;SDS011;61127;55.826;37.046;2023-09-19T09:30:59;18.80;;;12.03;;
70320;SDS011;61127;55.826;37.046;2023-09-19T09:33:28;21.38;;;11.95;;
70320;SDS011;61127;55.826;37.046;2023-09-19T09:35:55;17.08;;;12.75;;
70320;SDS011;61127;55.826;37.046;2023-09-19T09:38:26;17.88;;;12.25;;
70320;SDS011;61127;55.826;37.046;2023-09-19T09:40:53;18.38;;;12.15;;
70320;SDS011;61127;55.826;37.046;2023-09-19T09:43:34;21.43;;;12.63;;
70320;SDS011;61127;55.826;37.046;2023-09-19T09:51:40;18.83;;;12.32;;
70320;SDS011;61127;55.826;37.046;2023-09-19T09:54:12;18.13;;;12.50;;
70320;SDS011;61127;55.826;37.046;2023-09-19T09:56:56;21.03;;;12.23;;
70320;SDS011;61127;55.826;37.046;2023-09-19T10:02:28;18.83;;;11.88;;
70320;SDS011;61127;55.826;37.046;2023-09-19T10:04:58;19.98;;;11.70;;
70320;SDS011;61127;55.826;37.046;2023-09-19T10:07:35;17.67;;;11.63;;
70320;SDS011;61127;55.826;37.046;2023-09-19T10:10:04;15.47;;;10.97;;
70320;SDS011;61127;55.826;37.046;2023-09-19T10:12:47;18.15;;;11.60;;
70320;SDS011;61127;55.826;37.046;2023-09-19T10:15:17;17.20;;;12.05;;
70320;SDS011;61127;55.826;37.046;2023-09-19T10:17:47;19.33;;;12.23;;
70320;SDS011;61127;55.826;37.046;2023-09-19T10:20:14;17.63;;;11.77;;
70320;SDS011;61127;55.826;37.046;2023-09-19T10:22:48;18.37;;;12.07;;
70320;SDS011;61127;55.826;37.046;2023-09-19T10:25:26;15.93;;;11.32;;
70320;SDS011;61127;55.826;37.046;2023-09-19T10:27:57;18.20;;;12.02;;
70320;SDS011;61127;55.826;37.046;2023-09-19T10:30:28;14.98;;;11.32;;
70320;SDS011;61127;55.826;37.046;2023-09-19T10:32:59;17.35;;;11.57;;
70320;SDS011;61127;55.826;37.046;2023-09-19T10:35:27;18.83;;;12.07;;
70320;SDS011;61127;55.826;37.046;2023-09-19T10:37:54;19.15;;;12.13;;
70320;SDS011;61127;55.826;37.046;2023-09-19T10:40:25;15.57;;;11.55;;
70320;SDS011;61127;55.826;37.046;2023-09-19T10:43:03;19.60;;;11.07;;
70320;SDS011;61127;55.826;37.046;2023-09-19T10:45:35;17.30;;;10.07;;
70320;SDS011;61127;55.826;37.046;2023-09-19T10:48:04;15.43;;;9.93;;
70320;SDS011;61127;55.826;37.046;2023-09-19T10:50:36;19.35;;;10.55;;
70320;SDS011;61127;55.826;37.046;2023-09-19T10:53:12;17.02;;;10.93;;
70320;SDS011;61127;55.826;37.046;2023-09-19T10:55:40;17.25;;;11.77;;
70320;SDS011;61127;55.826;37.046;2023-09-19T10:58:13;20.77;;;11.98;;
70320;SDS011;61127;55.826;37.046;2023-09-19T11:00:52;17.60;;;11.23;;
70320;SDS011;61127;55.826;37.046;2023-09-19T11:04:20;19.23;;;10.63;;
70320;SDS011;61127;55.826;37.046;2023-09-19T11:07:03;19.63;;;11.15;;
70320;SDS011;61127;55.826;37.046;2023-09-19T11:09:43;19.30;;;10.65;;
70320;SDS011;61127;55.826;37.046;2023-09-19T11:14:56;17.87;;;10.73;;
70320;SDS011;61127;55.826;37.046;2023-09-19T11:30:44;18.38;;;10.63;;
70320;SDS011;61127;55.826;37.046;2023-09-19T11:36:12;18.02;;;10.55;;
70320;SDS011;61127;55.826;37.046;2023-09-19T11:47:02;18.60;;;10.00;;
70320;SDS011;61127;55.826;37.046;2023-09-19T11:49:31;16.23;;;9.85;;
70320;SDS011;61127;55.826;37.046;2023-09-19T11:51:59;18.83;;;9.77;;
70320;SDS011;61127;55.826;37.046;2023-09-19T11:54:26;15.03;;;9.13;;
70320;SDS011;61127;55.826;37.046;2023-09-19T11:56:57;16.67;;;9.13;;
70320;SDS011;61127;55.826;37.046;2023-09-19T11:59:25;15.77;;;9.25;;
70320;SDS011;61127;55.826;37.046;2023-09-19T12:07:07;15.70;;;8.53;;
70320;SDS011;61127;55.826;37.046;2023-09-19T12:09:47;14.55;;;9.10;;
70320;SDS011;61127;55.826;37.046;2023-09-19T12:12:25;18.83;;;8.88;;
70320;SDS011;61127;55.826;37.046;2023-09-19T12:14:59;13.77;;;7.38;;
70320;SDS011;61127;55.826;37.046;2023-09-19T12:20:04;7.77;;;5.87;;
70320;SDS011;61127;55.826;37.046;2023-09-19T12:22:40;9.60;;;5.70;;
70320;SDS011;61127;55.826;37.046;2023-09-19T12:25:08;8.88;;;5.80;;
70320;SDS011;61127;55.826;37.046;2023-09-19T12:30:13;7.13;;;5.65;;
70320;SDS011;61127;55.826;37.046;2023-09-19T12:32:42;6.80;;;5.70;;
70320;SDS011;61127;55.826;37.046;2023-09-19T12:35:08;7.13;;;5.53;;
70320;SDS011;61127;55.826;37.046;2023-09-19T12:37:37;7.30;;;5.43;;
70320;SDS011;61127;55.826;37.046;2023-09-19T12:40:11;10.27;;;5.30;;
70320;SDS011;61127;55.826;37.046;2023-09-19T12:42:44;6.90;;;4.97;;
70320;SDS011;61127;55.826;37.046;2023-09-19T12:45:12;7.77;;;4.50;;
70320;SDS011;61127;55.826;37.046;2023-09-19T12:47:40;6.75;;;4.90;;
70320;SDS011;61127;55.826;37.046;2023-09-19T12:50:58;9.30;;;4.97;;
70320;SDS011;61127;55.826;37.046;2023-09-19T12:53:57;6.43;;;4.95;;
70320;SDS011;61127;55.826;37.046;2023-09-19T12:56:23;7.00;;;4.90;;
70320;SDS011;61127;55.826;37.046;2023-09-19T12:58:53;11.87;;;5.30;;
70320;SDS011;61127;55.826;37.046;2023-09-19T13:01:20;7.55;;;5.03;;
70320;SDS011;61127;55.826;37.046;2023-09-19T13:06:44;9.32;;;5.05;;
70320;SDS011;61127;55.826;37.046;2023-09-19T13:09:11;8.93;;;4.80;;
70320;SDS011;61127;55.826;37.046;2023-09-19T13:11:38;7.70;;;5.30;;
70320;SDS011;61127;55.826;37.046;2023-09-19T13:14:13;11.35;;;5.75;;
70320;SDS011;61127;55.826;37.046;2023-09-19T13:19:36;8.30;;;5.50;;
70320;SDS011;61127;55.826;37.046;2023-09-19T13:25:09;12.00;;;6.00;;
70320;SDS011;61127;55.826;37.046;2023-09-19T13:27:46;11.07;;;5.75;;
70320;SDS011;61127;55.826;37.046;2023-09-19T13:30:16;8.82;;;5.30;;
70320;SDS011;61127;55.826;37.046;2023-09-19T13:32:43;12.13;;;5.30;;
70320;SDS011;61127;55.826;37.046;2023-09-19T13:35:10;8.88;;;5.13;;
70320;SDS011;61127;55.826;37.046;2023-09-19T13:37:40;12.43;;;5.57;;
70320;SDS011;61127;55.826;37.046;2023-09-19T13:40:08;9.80;;;5.40;;
70320;SDS011;61127;55.826;37.046;2023-09-19T13:42:36;9.07;;;5.80;;
70320;SDS011;61127;55.826;37.046;2023-09-19T13:45:03;10.85;;;5.50;;
70320;SDS011;61127;55.826;37.046;2023-09-19T13:47:36;9.30;;;5.38;;
70320;SDS011;61127;55.826;37.046;2023-09-19T13:50:03;9.00;;;5.20;;
70320;SDS011;61127;55.826;37.046;2023-09-19T13:52:30;10.35;;;5.60;;
70320;SDS011;61127;55.826;37.046;2023-09-19T13:54:57;9.95;;;5.40;;
70320;SDS011;61127;55.826;37.046;2023-09-19T13:57:24;11.00;;;5.40;;
70320;SDS011;61127;55.826;37.046;2023-09-19T13:59:51;14.48;;;5.72;;
70320;SDS011;61127;55.826;37.046;2023-09-19T14:02:20;10.43;;;5.30;;
70320;SDS011;61127;55.826;37.046;2023-09-19T14:04:48;9.07;;;5.88;;
70320;SDS011;61127;55.826;37.046;2023-09-19T14:07:15;8.18;;;5.60;;
70320;SDS011;61127;55.826;37.046;2023-09-19T14:09:43;7.35;;;5.50;;
70320;SDS011;61127;55.826;37.046;2023-09-19T14:12:09;6.88;;;5.30;;
70320;SDS011;61127;55.826;37.046;2023-09-19T14:14:35;8.60;;;5.10;;
70320;SDS011;61127;55.826;37.046;2023-09-19T14:17:03;7.10;;;5.20;;
70320;SDS011;61127;55.826;37.046;2023-09-19T14:19:29;9.13;;;4.95;;
70320;SDS011;61127;55.826;37.046;2023-09-19T14:21:56;9.70;;;5.30;;
70320;SDS011;61127;55.826;37.046;2023-09-19T14:24:22;11.88;;;4.93;;
70320;SDS011;61127;55.826;37.046;2023-09-19T14:26:48;7.77;;;5.10;;
70320;SDS011;61127;55.826;37.046;2023-09-19T14:29:15;9.27;;;5.00;;
70320;SDS011;61127;55.826;37.046;2023-09-19T14:31:42;10.68;;;5.25;;
70320;SDS011;61127;55.826;37.046;2023-09-19T14:34:08;10.07;;;5.20;;
70320;SDS011;61127;55.826;37.046;2023-09-19T14:36:37;10.00;;;5.38;;
70320;SDS011;61127;55.826;37.046;2023-09-19T14:39:06;10.30;;;5.07;;
70320;SDS011;61127;55.826;37.046;2023-09-19T14:41:33;14.25;;;5.53;;
70320;SDS011;61127;55.826;37.046;2023-09-19T14:44:01;8.95;;;4.90;;
70320;SDS011;61127;55.826;37.046;2023-09-19T14:46:28;8.35;;;5.07;;
70320;SDS011;61127;55.826;37.046;2023-09-19T14:48:55;10.83;;;5.47;;
70320;SDS011;61127;55.826;37.046;2023-09-19T14:51:25;10.07;;;5.50;;
70320;SDS011;61127;55.826;37.046;2023-09-19T14:53:55;10.05;;;5.13;;
70320;SDS011;61127;55.826;37.046;2023-09-19T14:56:22;12.23;;;5.32;;
70320;SDS011;61127;55.826;37.046;2023-09-19T14:58:49;9.88;;;5.30;;
70320;SDS011;61127;55.826;37.046;2023-09-19T15:01:15;8.73;;;5.00;;
70320;SDS011;61127;55.826;37.046;2023-09-19T15:03:41;11.60;;;5.22;;
70320;SDS011;61127;55.826;37.046;2023-09-19T15:06:11;12.48;;;5.32;;
70320;SDS011;61127;55.826;37.046;2023-09-19T15:08:46;8.82;;;5.40;;
70320;SDS011;61127;55.826;37.046;2023-09-19T15:11:13;9.07;;;5.38;;
70320;SDS011;61127;55.826;37.046;2023-09-19T15:13:43;12.27;;;5.13;;
70320;SDS011;61127;55.826;37.046;2023-09-19T15:16:10;9.77;;;5.35;;
70320;SDS011;61127;55.826;37.046;2023-09-19T15:18:37;13.25;;;5.90;;
70320;SDS011;61127;55.826;37.046;2023-09-19T15:21:06;11.27;;;6.07;;
70320;SDS011;61127;55.826;37.046;2023-09-19T15:23:33;14.27;;;6.07;;
70320;SDS011;61127;55.826;37.046;2023-09-19T15:26:00;17.33;;;5.50;;
70320;SDS011;61127;55.826;37.046;2023-09-19T15:28:27;17.70;;;6.68;;
70320;SDS011;61127;55.826;37.046;2023-09-19T15:31:04;13.55;;;6.22;;
70320;SDS011;61127;55.826;37.046;2023-09-19T15:33:32;16.70;;;6.20;;
70320;SDS011;61127;55.826;37.046;2023-09-19T15:38:31;12.60;;;6.37;;
70320;SDS011;61127;55.826;37.046;2023-09-19T15:41:19;14.57;;;6.30;;
70320;SDS011;61127;55.826;37.046;2023-09-19T15:43:46;11.18;;;6.50;;
70320;SDS011;61127;55.826;37.046;2023-09-19T15:46:12;10.68;;;6.18;;
70320;SDS011;61127;55.826;37.046;2023-09-19T15:48:40;16.33;;;6.78;;
70320;SDS011;61127;55.826;37.046;2023-09-19T15:51:07;16.77;;;6.07;;